sensor_id;sensor_type;location;lat;lon;timestamp;pressure;altitude;pressure_sealevel;temperature;humidity
3082;BME280;1551;51.046;7.010;2023-11-18T00:01:36;101757.53;;;6.29;nan
3082;BME280;1551;51.046;7.010;2023-11-18T00:04:25;101759.41;;;6.36;nan
3082;BME280;1551;51.046;7.010;2023-11-18T00:07:14;101770.56;;;6.41;nan
3082;BME280;1551;51.046;7.010;2023-11-18T00:10:04;101773.13;;;6.43;nan
3082;BME280;1551;51.046;7.010;2023-11-18T00:12:53;101775.88;;;6.52;nan
3082;BME280;1551;51.046;7.010;2023-11-18T00:15:42;101775.81;;;6.49;nan
3082;BME280;1551;51.046;7.010;2023-11-18T00:18:34;101771.63;;;6.51;nan
3082;BME280;1551;51.046;7.010;2023-11-18T00:21:23;101769.97;;;6.53;nan
3082;BME280;1551;51.046;7.010;2023-11-18T00:24:12;101774.31;;;6.57;nan
3082;BME280;1551;51.046;7.010;2023-11-18T00:27:03;101784.47;;;6.55;nan
3082;BME280;1551;51.046;7.010;2023-11-18T00:29:54;101777.59;;;6.51;nan
3082;BME280;1551;51.046;7.010;2023-11-18T00:32:43;101777.63;;;6.54;nan
3082;BME280;1551;51.046;7.010;2023-11-18T00:35:33;101782.59;;;6.48;nan
3082;BME280;1551;51.046;7.010;2023-11-18T00:38:22;101779.31;;;6.19;nan
3082;BME280;1551;51.046;7.010;2023-11-18T00:41:12;101770.72;;;6.14;nan
3082;BME280;1551;51.046;7.010;2023-11-18T00:44:02;101758.97;;;6.18;nan
3082;BME280;1551;51.046;7.010;2023-11-18T00:46:52;101759.84;;;6.18;nan
3082;BME280;1551;51.046;7.010;2023-11-18T00:49:40;101759.63;;;6.11;nan
3082;BME280;1551;51.046;7.010;2023-11-18T00:52:29;101752.09;;;6.14;nan
3082;BME280;1551;51.046;7.010;2023-11-18T00:55:18;101752.09;;;6.14;nan
3082;BME280;1551;51.046;7.010;2023-11-18T00:58:08;101746.97;;;6.12;nan
3082;BME280;1551;51.046;7.010;2023-11-18T01:00:57;101749.47;;;6.11;nan
3082;BME280;1551;51.046;7.010;2023-11-18T01:03:46;101750.28;;;6.10;nan
3082;BME280;1551;51.046;7.010;2023-11-18T01:06:35;101747.13;;;6.18;nan
3082;BME280;1551;51.046;7.010;2023-11-18T01:09:23;101736.09;;;6.18;nan
3082;BME280;1551;51.046;7.010;2023-11-18T01:12:13;101741.88;;;6.12;nan
3082;BME280;1551;51.046;7.010;2023-11-18T01:15:03;101732.34;;;6.04;nan
3082;BME280;1551;51.046;7.010;2023-11-18T01:17:54;101743.50;;;6.09;nan
3082;BME280;1551;51.046;7.010;2023-11-18T01:20:43;101749.25;;;6.02;nan
3082;BME280;1551;51.046;7.010;2023-11-18T01:23:33;101750.94;;;6.03;nan
3082;BME280;1551;51.046;7.010;2023-11-18T01:26:23;101757.66;;;6.01;nan
3082;BME280;1551;51.046;7.010;2023-11-18T01:29:11;101762.56;;;5.93;nan
3082;BME280;1551;51.046;7.010;2023-11-18T01:32:02;101766.06;;;5.97;nan
3082;BME280;1551;51.046;7.010;2023-11-18T01:34:57;101773.69;;;5.98;nan
3082;BME280;1551;51.046;7.010;2023-11-18T01:37:46;101780.28;;;5.90;nan
3082;BME280;1551;51.046;7.010;2023-11-18T01:40:37;101788.88;;;5.95;nan
3082;BME280;1551;51.046;7.010;2023-11-18T01:43:26;101781.41;;;6.01;nan
3082;BME280;1551;51.046;7.010;2023-11-18T01:46:16;101788.13;;;5.99;nan
3082;BME280;1551;51.046;7.010;2023-11-18T01:49:07;101773.75;;;6.00;nan
3082;BME280;1551;51.046;7.010;2023-11-18T01:51:57;101793.53;;;6.11;nan
3082;BME280;1551;51.046;7.010;2023-11-18T01:54:47;101786.53;;;6.03;nan
3082;BME280;1551;51.046;7.010;2023-11-18T01:57:37;101781.53;;;6.06;nan
3082;BME280;1551;51.046;7.010;2023-11-18T02:00:26;101779.00;;;6.07;nan
3082;BME280;1551;51.046;7.010;2023-11-18T02:03:16;101774.78;;;6.08;nan
3082;BME280;1551;51.046;7.010;2023-11-18T02:06:06;101766.41;;;6.12;nan
3082;BME280;1551;51.046;7.010;2023-11-18T02:08:55;101764.75;;;6.12;nan
3082;BME280;1551;51.046;7.010;2023-11-18T02:12:04;101767.09;;;6.05;nan
3082;BME280;1551;51.046;7.010;2023-11-18T02:15:00;101775.63;;;6.07;nan
3082;BME280;1551;51.046;7.010;2023-11-18T02:17:52;101773.09;;;6.07;nan
3082;BME280;1551;51.046;7.010;2023-11-18T02:20:43;101767.16;;;6.06;nan
3082;BME280;1551;51.046;7.010;2023-11-18T02:23:32;101759.47;;;6.05;nan
3082;BME280;1551;51.046;7.010;2023-11-18T02:26:22;101752.78;;;6.08;nan
3082;BME280;1551;51.046;7.010;2023-11-18T02:29:12;101748.59;;;6.10;nan
3082;BME280;1551;51.046;7.010;2023-11-18T02:45:23;101758.63;;;6.04;nan
3082;BME280;1551;51.046;7.010;2023-11-18T02:48:12;101749.94;;;5.96;nan
3082;BME280;1551;51.046;7.010;2023-11-18T02:51:02;101746.53;;;5.96;nan
3082;BME280;1551;51.046;7.010;2023-11-18T02:53:51;101749.00;;;5.93;nan
3082;BME280;1551;51.046;7.010;2023-11-18T02:56:40;101743.16;;;5.95;nan
3082;BME280;1551;51.046;7.010;2023-11-18T02:59:30;101735.53;;;5.95;nan
3082;BME280;1551;51.046;7.010;2023-11-18T03:02:20;101744.97;;;6.01;nan
3082;BME280;1551;51.046;7.010;2023-11-18T03:05:09;101750.88;;;6.00;nan
3082;BME280;1551;51.046;7.010;2023-11-18T03:08:00;101756.66;;;5.94;nan
3082;BME280;1551;51.046;7.010;2023-11-18T03:10:49;101765.28;;;6.01;nan
3082;BME280;1551;51.046;7.010;2023-11-18T03:13:41;101775.44;;;5.99;nan
3082;BME280;1551;51.046;7.010;2023-11-18T03:16:30;101768.72;;;6.01;nan
3082;BME280;1551;51.046;7.010;2023-11-18T03:19:19;101760.28;;;6.02;nan
3082;BME280;1551;51.046;7.010;2023-11-18T03:22:08;101750.03;;;5.99;nan
3082;BME280;1551;51.046;7.010;2023-11-18T03:24:57;101754.25;;;6.00;nan
3082;BME280;1551;51.046;7.010;2023-11-18T03:27:46;101744.19;;;6.03;nan
3082;BME280;1551;51.046;7.010;2023-11-18T03:30:35;101738.19;;;6.00;nan
3082;BME280;1551;51.046;7.010;2023-11-18T03:33:26;101731.25;;;5.94;nan
3082;BME280;1551;51.046;7.010;2023-11-18T03:36:15;101724.50;;;5.95;nan
3082;BME280;1551;51.046;7.010;2023-11-18T03:39:06;101716.81;;;5.93;nan
3082;BME280;1551;51.046;7.010;2023-11-18T03:41:56;101711.03;;;5.99;nan
3082;BME280;1551;51.046;7.010;2023-11-18T03:44:47;101704.06;;;5.90;nan
3082;BME280;1551;51.046;7.010;2023-11-18T03:47:37;101706.66;;;5.93;nan
3082;BME280;1551;51.046;7.010;2023-11-18T03:50:26;101700.91;;;6.00;nan
3082;BME280;1551;51.046;7.010;2023-11-18T03:53:15;101710.34;;;6.04;nan
3082;BME280;1551;51.046;7.010;2023-11-18T03:56:04;101721.22;;;6.00;nan
3082;BME280;1551;51.046;7.010;2023-11-18T03:58:54;101727.09;;;5.98;nan
3082;BME280;1551;51.046;7.010;2023-11-18T04:01:43;101738.88;;;5.94;nan
3082;BME280;1551;51.046;7.010;2023-11-18T04:04:32;101749.25;;;6.02;nan
3082;BME280;1551;51.046;7.010;2023-11-18T04:07:21;101749.19;;;6.00;nan
3082;BME280;1551;51.046;7.010;2023-11-18T04:10:10;101737.44;;;6.04;nan
3082;BME280;1551;51.046;7.010;2023-11-18T04:12:59;101750.28;;;6.10;nan
3082;BME280;1551;51.046;7.010;2023-11-18T04:15:48;101744.47;;;6.14;nan
3082;BME280;1551;51.046;7.010;2023-11-18T04:18:42;101747.94;;;6.17;nan
3082;BME280;1551;51.046;7.010;2023-11-18T04:21:31;101737.69;;;6.14;nan
3082;BME280;1551;51.046;7.010;2023-11-18T04:24:20;101725.72;;;6.09;nan
3082;BME280;1551;51.046;7.010;2023-11-18T04:27:09;101713.03;;;6.10;nan
3082;BME280;1551;51.046;7.010;2023-11-18T04:29:58;101717.34;;;6.14;nan
3082;BME280;1551;51.046;7.010;2023-11-18T04:32:47;101699.50;;;6.11;nan
3082;BME280;1551;51.046;7.010;2023-11-18T04:35:36;101700.22;;;6.07;nan
3082;BME280;1551;51.046;7.010;2023-11-18T04:38:25;101700.22;;;6.06;nan
3082;BME280;1551;51.046;7.010;2023-11-18T04:41:15;101689.91;;;6.00;nan
3082;BME280;1551;51.046;7.010;2023-11-18T04:44:04;101688.97;;;5.96;nan
3082;BME280;1551;51.046;7.010;2023-11-18T04:46:54;101682.91;;;5.91;nan
3082;BME280;1551;51.046;7.010;2023-11-18T04:49:43;101674.41;;;5.91;nan
3082;BME280;1551;51.046;7.010;2023-11-18T04:52:32;101669.22;;;5.86;nan
3082;BME280;1551;51.046;7.010;2023-11-18T04:55:23;101659.13;;;5.88;nan
3082;BME280;1551;51.046;7.010;2023-11-18T04:58:15;101655.75;;;5.89;nan
3082;BME280;1551;51.046;7.010;2023-11-18T05:01:04;101647.19;;;5.85;nan
3082;BME280;1551;51.046;7.010;2023-11-18T05:03:54;101660.63;;;5.81;nan
3082;BME280;1551;51.046;7.010;2023-11-18T05:06:43;101651.41;;;5.85;nan
3082;BME280;1551;51.046;7.010;2023-11-18T05:09:33;101648.91;;;5.86;nan
3082;BME280;1551;51.046;7.010;2023-11-18T05:12:22;101648.91;;;5.86;nan
3082;BME280;1551;51.046;7.010;2023-11-18T05:15:11;101648.72;;;5.80;nan
3082;BME280;1551;51.046;7.010;2023-11-18T05:18:01;101638.59;;;5.82;nan
3082;BME280;1551;51.046;7.010;2023-11-18T05:20:50;101630.31;;;5.87;nan
3082;BME280;1551;51.046;7.010;2023-11-18T05:23:39;101629.44;;;5.87;nan
3082;BME280;1551;51.046;7.010;2023-11-18T05:26:28;101628.56;;;5.86;nan
3082;BME280;1551;51.046;7.010;2023-11-18T05:29:18;101619.38;;;5.90;nan
3082;BME280;1551;51.046;7.010;2023-11-18T05:32:07;101616.81;;;5.88;nan
3082;BME280;1551;51.046;7.010;2023-11-18T05:34:56;101618.50;;;5.89;nan
3082;BME280;1551;51.046;7.010;2023-11-18T05:37:46;101619.34;;;5.88;nan
3082;BME280;1551;51.046;7.010;2023-11-18T05:40:36;101612.50;;;5.86;nan
3082;BME280;1551;51.046;7.010;2023-11-18T05:43:32;101620.28;;;5.93;nan
3082;BME280;1551;51.046;7.010;2023-11-18T05:46:29;101619.56;;;5.97;nan
3082;BME280;1551;51.046;7.010;2023-11-18T05:49:18;101620.47;;;6.01;nan
3082;BME280;1551;51.046;7.010;2023-11-18T05:52:11;101607.88;;;6.05;nan
3082;BME280;1551;51.046;7.010;2023-11-18T05:55:00;101605.31;;;6.05;nan
3082;BME280;1551;51.046;7.010;2023-11-18T05:57:49;101602.88;;;6.08;nan
3082;BME280;1551;51.046;7.010;2023-11-18T06:00:38;101601.19;;;6.09;nan
3082;BME280;1551;51.046;7.010;2023-11-18T06:03:27;101608.84;;;6.12;nan
3082;BME280;1551;51.046;7.010;2023-11-18T06:06:16;101601.41;;;6.19;nan
3082;BME280;1551;51.046;7.010;2023-11-18T06:09:05;101597.16;;;6.18;nan
3082;BME280;1551;51.046;7.010;2023-11-18T06:11:57;101597.31;;;6.26;nan
3082;BME280;1551;51.046;7.010;2023-11-18T06:14:46;101605.59;;;6.16;nan
3082;BME280;1551;51.046;7.010;2023-11-18T06:17:37;101605.69;;;6.20;nan
3082;BME280;1551;51.046;7.010;2023-11-18T06:20:27;101598.97;;;6.24;nan
3082;BME280;1551;51.046;7.010;2023-11-18T06:23:16;101588.00;;;6.27;nan
3082;BME280;1551;51.046;7.010;2023-11-18T06:26:08;101589.81;;;6.31;nan
3082;BME280;1551;51.046;7.010;2023-11-18T06:28:59;101588.19;;;6.34;nan
3082;BME280;1551;51.046;7.010;2023-11-18T06:31:48;101572.13;;;6.35;nan
3082;BME280;1551;51.046;7.010;2023-11-18T06:34:37;101584.84;;;6.37;nan
3082;BME280;1551;51.046;7.010;2023-11-18T06:37:32;101589.94;;;6.38;nan
3082;BME280;1551;51.046;7.010;2023-11-18T06:40:21;101577.31;;;6.41;nan
3082;BME280;1551;51.046;7.010;2023-11-18T06:43:10;101575.66;;;6.43;nan
3082;BME280;1551;51.046;7.010;2023-11-18T06:45:59;101581.69;;;6.47;nan
3082;BME280;1551;51.046;7.010;2023-11-18T06:48:50;101564.78;;;6.49;nan
3082;BME280;1551;51.046;7.010;2023-11-18T06:51:43;101569.09;;;6.53;nan
3082;BME280;1551;51.046;7.010;2023-11-18T06:54:32;101580.81;;;6.46;nan
3082;BME280;1551;51.046;7.010;2023-11-18T06:57:22;101602.84;;;6.47;nan
3082;BME280;1551;51.046;7.010;2023-11-18T07:00:12;101605.56;;;6.55;nan
3082;BME280;1551;51.046;7.010;2023-11-18T07:03:03;101611.53;;;6.57;nan
3082;BME280;1551;51.046;7.010;2023-11-18T07:05:51;101602.22;;;6.56;nan
3082;BME280;1551;51.046;7.010;2023-11-18T07:08:40;101613.19;;;6.55;nan
3082;BME280;1551;51.046;7.010;2023-11-18T07:11:29;101598.78;;;6.54;nan
3082;BME280;1551;51.046;7.010;2023-11-18T07:14:22;101605.66;;;6.59;nan
3082;BME280;1551;51.046;7.010;2023-11-18T07:17:11;101624.44;;;6.66;nan
3082;BME280;1551;51.046;7.010;2023-11-18T07:20:00;101626.28;;;6.73;nan
3082;BME280;1551;51.046;7.010;2023-11-18T07:22:49;101625.47;;;6.74;nan
3082;BME280;1551;51.046;7.010;2023-11-18T07:25:38;101629.84;;;6.79;nan
3082;BME280;1551;51.046;7.010;2023-11-18T07:28:27;101630.63;;;6.77;nan
3082;BME280;1551;51.046;7.010;2023-11-18T07:31:16;101629.75;;;6.75;nan
3082;BME280;1551;51.046;7.010;2023-11-18T07:34:07;101612.75;;;6.74;nan
3082;BME280;1551;51.046;7.010;2023-11-18T07:36:56;101604.34;;;6.78;nan
3082;BME280;1551;51.046;7.010;2023-11-18T07:39:45;101608.63;;;6.80;nan
3082;BME280;1551;51.046;7.010;2023-11-18T07:42:37;101591.72;;;6.82;nan
3082;BME280;1551;51.046;7.010;2023-11-18T07:45:27;101584.94;;;6.83;nan
3082;BME280;1551;51.046;7.010;2023-11-18T07:48:17;101579.84;;;6.83;nan
3082;BME280;1551;51.046;7.010;2023-11-18T07:51:07;101576.53;;;6.87;nan
3082;BME280;1551;51.046;7.010;2023-11-18T07:53:57;101567.22;;;6.87;nan
3082;BME280;1551;51.046;7.010;2023-11-18T07:56:46;101559.66;;;6.90;nan
3082;BME280;1551;51.046;7.010;2023-11-18T07:59:36;101568.31;;;7.00;nan
3082;BME280;1551;51.046;7.010;2023-11-18T08:02:26;101573.44;;;7.02;nan
3082;BME280;1551;51.046;7.010;2023-11-18T08:05:16;101578.56;;;7.03;nan
3082;BME280;1551;51.046;7.010;2023-11-18T08:08:07;101584.63;;;7.11;nan
3082;BME280;1551;51.046;7.010;2023-11-18T08:10:56;101586.41;;;7.15;nan
3082;BME280;1551;51.046;7.010;2023-11-18T08:13:45;101568.66;;;7.18;nan
3082;BME280;1551;51.046;7.010;2023-11-18T08:16:35;101584.97;;;7.29;nan
3082;BME280;1551;51.046;7.010;2023-11-18T08:19:24;101588.44;;;7.34;nan
3082;BME280;1551;51.046;7.010;2023-11-18T08:22:13;101583.50;;;7.42;nan
3082;BME280;1551;51.046;7.010;2023-11-18T08:25:05;101573.31;;;7.43;nan
3082;BME280;1551;51.046;7.010;2023-11-18T08:27:57;101573.50;;;7.52;nan
3082;BME280;1551;51.046;7.010;2023-11-18T08:30:46;101579.44;;;7.53;nan
3082;BME280;1551;51.046;7.010;2023-11-18T08:33:37;101589.69;;;7.57;nan
3082;BME280;1551;51.046;7.010;2023-11-18T08:36:26;101578.69;;;7.60;nan
3082;BME280;1551;51.046;7.010;2023-11-18T08:39:16;101586.47;;;7.66;nan
3082;BME280;1551;51.046;7.010;2023-11-18T08:42:05;101592.44;;;7.68;nan
3082;BME280;1551;51.046;7.010;2023-11-18T08:44:54;101583.91;;;7.68;nan
3082;BME280;1551;51.046;7.010;2023-11-18T08:47:44;101582.38;;;7.79;nan
3082;BME280;1551;51.046;7.010;2023-11-18T08:50:36;101589.34;;;7.87;nan
3082;BME280;1551;51.046;7.010;2023-11-18T08:53:25;101588.53;;;7.90;nan
3082;BME280;1551;51.046;7.010;2023-11-18T08:56:15;101584.31;;;7.92;nan
3082;BME280;1551;51.046;7.010;2023-11-18T08:59:04;101575.88;;;7.96;nan
3082;BME280;1551;51.046;7.010;2023-11-18T09:01:57;101577.59;;;7.98;nan
3082;BME280;1551;51.046;7.010;2023-11-18T09:04:47;101581.94;;;8.04;nan
3082;BME280;1551;51.046;7.010;2023-11-18T09:07:36;101585.38;;;8.09;nan
3082;BME280;1551;51.046;7.010;2023-11-18T09:10:26;101577.84;;;8.16;nan
3082;BME280;1551;51.046;7.010;2023-11-18T09:13:17;101561.75;;;8.19;nan
3082;BME280;1551;51.046;7.010;2023-11-18T09:16:06;101554.25;;;8.26;nan
3082;BME280;1551;51.046;7.010;2023-11-18T09:18:58;101547.38;;;8.22;nan
3082;BME280;1551;51.046;7.010;2023-11-18T09:21:48;101553.44;;;8.29;nan
3082;BME280;1551;51.046;7.010;2023-11-18T09:24:37;101550.06;;;8.32;nan
3082;BME280;1551;51.046;7.010;2023-11-18T09:27:27;101547.63;;;8.39;nan
3082;BME280;1551;51.046;7.010;2023-11-18T09:30:18;101551.03;;;8.41;nan
3082;BME280;1551;51.046;7.010;2023-11-18T09:33:07;101534.16;;;8.52;nan
3082;BME280;1551;51.046;7.010;2023-11-18T09:36:04;101536.66;;;8.49;nan
3082;BME280;1551;51.046;7.010;2023-11-18T09:38:56;101532.31;;;8.42;nan
3082;BME280;1551;51.046;7.010;2023-11-18T09:41:45;101541.69;;;8.43;nan
3082;BME280;1551;51.046;7.010;2023-11-18T09:44:36;101548.53;;;8.46;nan
3082;BME280;1551;51.046;7.010;2023-11-18T09:47:26;101546.91;;;8.52;nan
3082;BME280;1551;51.046;7.010;2023-11-18T09:50:17;101531.66;;;8.57;nan
3082;BME280;1551;51.046;7.010;2023-11-18T09:53:09;101538.50;;;8.61;nan
3082;BME280;1551;51.046;7.010;2023-11-18T09:56:07;101526.66;;;8.66;nan
3082;BME280;1551;51.046;7.010;2023-11-18T09:59:12;101522.47;;;8.72;nan
3082;BME280;1551;51.046;7.010;2023-11-18T10:02:08;101525.97;;;8.79;nan
3082;BME280;1551;51.046;7.010;2023-11-18T10:05:00;101518.25;;;8.76;nan
3082;BME280;1551;51.046;7.010;2023-11-18T10:07:50;101515.75;;;8.80;nan
3082;BME280;1551;51.046;7.010;2023-11-18T10:10:39;101530.25;;;8.81;nan
3082;BME280;1551;51.046;7.010;2023-11-18T10:13:35;101511.47;;;8.78;nan
3082;BME280;1551;51.046;7.010;2023-11-18T10:16:29;101524.25;;;8.79;nan
3082;BME280;1551;51.046;7.010;2023-11-18T10:19:19;101513.16;;;8.74;nan
3082;BME280;1551;51.046;7.010;2023-11-18T10:22:24;101496.97;;;8.74;nan
3082;BME280;1551;51.046;7.010;2023-11-18T10:25:23;101495.34;;;8.80;nan
3082;BME280;1551;51.046;7.010;2023-11-18T10:28:25;101492.00;;;8.87;nan
3082;BME280;1551;51.046;7.010;2023-11-18T10:31:18;101470.75;;;8.90;nan
3082;BME280;1551;51.046;7.010;2023-11-18T10:34:08;101463.16;;;8.93;nan
3082;BME280;1551;51.046;7.010;2023-11-18T10:37:01;101461.41;;;8.93;nan
3082;BME280;1551;51.046;7.010;2023-11-18T10:39:55;101458.88;;;8.92;nan
3082;BME280;1551;51.046;7.010;2023-11-18T10:42:44;101437.53;;;8.87;nan
3082;BME280;1551;51.046;7.010;2023-11-18T10:45:37;101445.28;;;8.94;nan
3082;BME280;1551;51.046;7.010;2023-11-18T10:48:30;101426.50;;;8.89;nan
3082;BME280;1551;51.046;7.010;2023-11-18T10:51:20;101420.59;;;8.96;nan
3082;BME280;1551;51.046;7.010;2023-11-18T10:54:10;101411.28;;;9.00;nan
3082;BME280;1551;51.046;7.010;2023-11-18T10:57:05;101409.50;;;8.91;nan
3082;BME280;1551;51.046;7.010;2023-11-18T11:00:00;101401.88;;;8.94;nan
3082;BME280;1551;51.046;7.010;2023-11-18T11:02:59;101395.03;;;8.93;nan
3082;BME280;1551;51.046;7.010;2023-11-18T11:05:47;101395.06;;;8.96;nan
3082;BME280;1551;51.046;7.010;2023-11-18T11:08:38;101382.28;;;8.90;nan
3082;BME280;1551;51.046;7.010;2023-11-18T11:11:34;101393.41;;;9.02;nan
3082;BME280;1551;51.046;7.010;2023-11-18T11:14:32;101410.50;;;9.09;nan
3082;BME280;1551;51.046;7.010;2023-11-18T11:17:27;101407.97;;;9.13;nan
3082;BME280;1551;51.046;7.010;2023-11-18T11:20:21;101391.84;;;9.22;nan
3082;BME280;1551;51.046;7.010;2023-11-18T11:26:28;101397.78;;;9.18;nan
3082;BME280;1551;51.046;7.010;2023-11-18T11:29:36;101398.66;;;9.20;nan
3082;BME280;1551;51.046;7.010;2023-11-18T11:32:32;101380.81;;;9.26;nan
3082;BME280;1551;51.046;7.010;2023-11-18T11:35:31;101379.88;;;9.15;nan
3082;BME280;1551;51.046;7.010;2023-11-18T11:38:21;101385.91;;;9.21;nan
3082;BME280;1551;51.046;7.010;2023-11-18T11:41:11;101381.63;;;9.19;nan
3082;BME280;1551;51.046;7.010;2023-11-18T11:44:08;101386.75;;;9.19;nan
3082;BME280;1551;51.046;7.010;2023-11-18T11:46:58;101379.09;;;9.26;nan
3082;BME280;1551;51.046;7.010;2023-11-18T11:50:11;101367.16;;;9.22;nan
3082;BME280;1551;51.046;7.010;2023-11-18T11:53:08;101363.69;;;9.13;nan
3082;BME280;1551;51.046;7.010;2023-11-18T11:56:05;101362.84;;;9.12;nan
3082;BME280;1551;51.046;7.010;2023-11-18T11:58:57;101372.22;;;9.12;nan
3082;BME280;1551;51.046;7.010;2023-11-18T12:01:48;101361.19;;;9.14;nan
3082;BME280;1551;51.046;7.010;2023-11-18T12:04:45;101353.59;;;9.28;nan
3082;BME280;1551;51.046;7.010;2023-11-18T12:07:34;101356.97;;;9.25;nan
3082;BME280;1551;51.046;7.010;2023-11-18T12:10:30;101364.66;;;9.30;nan
3082;BME280;1551;51.046;7.010;2023-11-18T12:13:19;101351.00;;;9.26;nan
3082;BME280;1551;51.046;7.010;2023-11-18T12:16:08;101344.25;;;9.34;nan
3082;BME280;1551;51.046;7.010;2023-11-18T12:19:30;101345.94;;;9.34;nan
3082;BME280;1551;51.046;7.010;2023-11-18T12:22:25;101339.16;;;9.37;nan
3082;BME280;1551;51.046;7.010;2023-11-18T12:25:28;101332.38;;;9.41;nan
3082;BME280;1551;51.046;7.010;2023-11-18T12:28:18;101327.22;;;9.38;nan
3082;BME280;1551;51.046;7.010;2023-11-18T12:31:11;101317.88;;;9.35;nan
3082;BME280;1551;51.046;7.010;2023-11-18T12:34:06;101296.56;;;9.38;nan
3082;BME280;1551;51.046;7.010;2023-11-18T12:37:21;101276.09;;;9.29;nan
3082;BME280;1551;51.046;7.010;2023-11-18T12:40:42;101259.06;;;9.25;nan
3082;BME280;1551;51.046;7.010;2023-11-18T12:43:49;101236.91;;;9.18;nan
3082;BME280;1551;51.046;7.010;2023-11-18T12:49:38;101251.38;;;9.20;nan
3082;BME280;1551;51.046;7.010;2023-11-18T12:52:30;101244.56;;;9.24;nan
3082;BME280;1551;51.046;7.010;2023-11-18T12:55:20;101230.94;;;9.20;nan
3082;BME280;1551;51.046;7.010;2023-11-18T12:58:10;101227.59;;;9.26;nan
3082;BME280;1551;51.046;7.010;2023-11-18T13:01:00;101232.69;;;9.27;nan
3082;BME280;1551;51.046;7.010;2023-11-18T13:03:51;101196.09;;;9.30;nan
3082;BME280;1551;51.046;7.010;2023-11-18T13:06:42;101175.66;;;9.30;nan
3082;BME280;1551;51.046;7.010;2023-11-18T13:09:32;101179.06;;;9.32;nan
3082;BME280;1551;51.046;7.010;2023-11-18T13:12:21;101186.72;;;9.33;nan
3082;BME280;1551;51.046;7.010;2023-11-18T13:15:12;101191.81;;;9.27;nan
3082;BME280;1551;51.046;7.010;2023-11-18T13:18:04;101196.94;;;9.29;nan
3082;BME280;1551;51.046;7.010;2023-11-18T13:20:56;101179.06;;;9.26;nan
3082;BME280;1551;51.046;7.010;2023-11-18T13:23:48;101167.13;;;9.26;nan
3082;BME280;1551;51.046;7.010;2023-11-18T13:26:37;101145.00;;;9.28;nan
3082;BME280;1551;51.046;7.010;2023-11-18T13:29:27;101110.09;;;9.26;nan
3082;BME280;1551;51.046;7.010;2023-11-18T13:32:16;101099.03;;;9.31;nan
3082;BME280;1551;51.046;7.010;2023-11-18T13:35:05;101098.19;;;9.35;nan
3082;BME280;1551;51.046;7.010;2023-11-18T13:37:56;101082.03;;;9.35;nan
3082;BME280;1551;51.046;7.010;2023-11-18T13:40:47;101083.72;;;9.39;nan
3082;BME280;1551;51.046;7.010;2023-11-18T13:43:43;101077.72;;;9.31;nan
3082;BME280;1551;51.046;7.010;2023-11-18T13:46:33;101097.31;;;9.32;nan
3082;BME280;1551;51.046;7.010;2023-11-18T13:49:22;101082.84;;;9.29;nan
3082;BME280;1551;51.046;7.010;2023-11-18T13:52:13;101075.16;;;9.26;nan
3082;BME280;1551;51.046;7.010;2023-11-18T13:55:06;101068.34;;;9.24;nan
3082;BME280;1551;51.046;7.010;2023-11-18T13:57:56;101035.16;;;9.15;nan
3082;BME280;1551;51.046;7.010;2023-11-18T14:00:46;101043.69;;;9.21;nan
3082;BME280;1551;51.046;7.010;2023-11-18T14:03:36;101032.59;;;9.18;nan
3082;BME280;1551;51.046;7.010;2023-11-18T14:06:25;101030.06;;;9.24;nan
3082;BME280;1551;51.046;7.010;2023-11-18T14:09:16;101024.13;;;9.19;nan
3082;BME280;1551;51.046;7.010;2023-11-18T14:12:06;101017.28;;;9.18;nan
3082;BME280;1551;51.046;7.010;2023-11-18T14:14:55;101001.13;;;9.23;nan
3082;BME280;1551;51.046;7.010;2023-11-18T14:17:44;100997.72;;;9.27;nan
3082;BME280;1551;51.046;7.010;2023-11-18T14:20:33;100981.53;;;9.27;nan
3082;BME280;1551;51.046;7.010;2023-11-18T14:23:24;100976.44;;;9.16;nan
3082;BME280;1551;51.046;7.010;2023-11-18T14:26:13;100976.41;;;9.15;nan
3082;BME280;1551;51.046;7.010;2023-11-18T14:29:02;100967.94;;;9.11;nan
3082;BME280;1551;51.046;7.010;2023-11-18T14:31:51;100960.28;;;9.14;nan
3082;BME280;1551;51.046;7.010;2023-11-18T14:34:41;100956.88;;;9.09;nan
3082;BME280;1551;51.046;7.010;2023-11-18T14:37:30;100954.31;;;9.11;nan
3082;BME280;1551;51.046;7.010;2023-11-18T14:40:19;100943.25;;;9.04;nan
3082;BME280;1551;51.046;7.010;2023-11-18T14:43:08;100948.34;;;9.06;nan
3082;BME280;1551;51.046;7.010;2023-11-18T14:45:57;100948.34;;;9.07;nan
3082;BME280;1551;51.046;7.010;2023-11-18T14:48:46;100939.00;;;9.06;nan
3082;BME280;1551;51.046;7.010;2023-11-18T14:51:36;100953.44;;;9.06;nan
3082;BME280;1551;51.046;7.010;2023-11-18T14:54:25;100954.28;;;8.98;nan
3082;BME280;1551;51.046;7.010;2023-11-18T14:57:13;100933.88;;;8.94;nan
3082;BME280;1551;51.046;7.010;2023-11-18T15:00:03;100935.56;;;8.92;nan
3082;BME280;1551;51.046;7.010;2023-11-18T15:02:56;100944.06;;;8.91;nan
3082;BME280;1551;51.046;7.010;2023-11-18T15:05:45;100931.31;;;8.86;nan
3082;BME280;1551;51.046;7.010;2023-11-18T15:08:34;100910.06;;;8.81;nan
3082;BME280;1551;51.046;7.010;2023-11-18T15:11:23;100901.53;;;8.82;nan
3082;BME280;1551;51.046;7.010;2023-11-18T15:14:12;100886.22;;;8.78;nan
3082;BME280;1551;51.046;7.010;2023-11-18T15:17:01;100899.81;;;8.77;nan
3082;BME280;1551;51.046;7.010;2023-11-18T15:19:51;100891.34;;;8.73;nan
3082;BME280;1551;51.046;7.010;2023-11-18T15:22:42;100881.97;;;8.75;nan
3082;BME280;1551;51.046;7.010;2023-11-18T15:25:32;100883.69;;;8.82;nan
3082;BME280;1551;51.046;7.010;2023-11-18T15:28:21;100886.22;;;8.82;nan
3082;BME280;1551;51.046;7.010;2023-11-18T15:31:10;100884.50;;;8.72;nan
3082;BME280;1551;51.046;7.010;2023-11-18T15:33:59;100870.91;;;8.70;nan
3082;BME280;1551;51.046;7.010;2023-11-18T15:36:49;100861.56;;;8.69;nan
3082;BME280;1551;51.046;7.010;2023-11-18T15:39:38;100876.88;;;8.71;nan
3082;BME280;1551;51.046;7.010;2023-11-18T15:42:26;100847.94;;;8.66;nan
3082;BME280;1551;51.046;7.010;2023-11-18T15:45:18;100854.75;;;8.67;nan
3082;BME280;1551;51.046;7.010;2023-11-18T15:48:08;100840.31;;;8.60;nan
3082;BME280;1551;51.046;7.010;2023-11-18T15:50:59;100854.75;;;8.68;nan
3082;BME280;1551;51.046;7.010;2023-11-18T15:53:47;100845.41;;;8.67;nan
3082;BME280;1551;51.046;7.010;2023-11-18T15:56:36;100828.41;;;8.66;nan
3082;BME280;1551;51.046;7.010;2023-11-18T15:59:27;100817.31;;;8.63;nan
3082;BME280;1551;51.046;7.010;2023-11-18T16:02:16;100804.56;;;8.66;nan
3082;BME280;1551;51.046;7.010;2023-11-18T16:05:05;100794.38;;;8.61;nan
3082;BME280;1551;51.046;7.010;2023-11-18T16:07:55;100789.25;;;8.63;nan
3082;BME280;1551;51.046;7.010;2023-11-18T16:10:44;100799.50;;;8.60;nan
3082;BME280;1551;51.046;7.010;2023-11-18T16:13:33;100803.75;;;8.58;nan
3082;BME280;1551;51.046;7.010;2023-11-18T16:16:23;100790.13;;;8.57;nan